sensor_id;sensor_type;location;lat;lon;timestamp;pressure;altitude;pressure_sealevel;temperature;humidity
76358;BME280;65185;21.060;105.826;2022-12-10T00:01:50;101728.25;;;16.41;100.00
76358;BME280;65185;21.060;105.826;2022-12-10T00:04:18;101732.88;;;16.40;100.00
76358;BME280;65185;21.060;105.826;2022-12-10T00:06:46;101735.59;;;16.40;100.00
76358;BME280;65185;21.060;105.826;2022-12-10T00:09:15;101734.50;;;16.41;100.00
76358;BME280;65185;21.060;105.826;2022-12-10T00:11:42;101731.25;;;16.39;100.00
76358;BME280;65185;21.060;105.826;2022-12-10T00:14:11;101729.09;;;16.41;100.00
76358;BME280;65185;21.060;105.826;2022-12-10T00:16:39;101739.66;;;16.43;100.00
76358;BME280;65185;21.060;105.826;2022-12-10T00:19:06;101748.06;;;16.41;100.00
76358;BME280;65185;21.060;105.826;2022-12-10T00:21:35;101755.63;;;16.39;100.00
76358;BME280;65185;21.060;105.826;2022-12-10T00:24:03;101748.06;;;16.36;100.00
76358;BME280;65185;21.060;105.826;2022-12-10T00:26:33;101756.75;;;16.38;100.00
76358;BME280;65185;21.060;105.826;2022-12-10T00:29:02;101753.47;;;16.36;100.00
76358;BME280;65185;21.060;105.826;2022-12-10T00:31:32;101761.88;;;16.35;100.00
76358;BME280;65185;21.060;105.826;2022-12-10T00:34:01;101766.47;;;16.34;100.00
76358;BME280;65185;21.060;105.826;2022-12-10T00:36:35;101775.44;;;16.35;100.00
76358;BME280;65185;21.060;105.826;2022-12-10T00:39:03;101770.00;;;16.35;100.00
76358;BME280;65185;21.060;105.826;2022-12-10T00:41:30;101773.78;;;16.39;100.00
76358;BME280;65185;21.060;105.826;2022-12-10T00:43:57;101783.56;;;16.40;100.00
76358;BME280;65185;21.060;105.826;2022-12-10T00:46:24;101781.66;;;16.40;100.00
76358;BME280;65185;21.060;105.826;2022-12-10T00:48:51;101788.72;;;16.41;100.00
76358;BME280;65185;21.060;105.826;2022-12-10T00:51:23;101788.72;;;16.41;100.00
76358;BME280;65185;21.060;105.826;2022-12-10T00:53:52;101792.81;;;16.44;100.00
76358;BME280;65185;21.060;105.826;2022-12-10T00:56:22;101799.03;;;16.44;100.00
76358;BME280;65185;21.060;105.826;2022-12-10T00:58:49;101796.59;;;16.43;100.00
76358;BME280;65185;21.060;105.826;2022-12-10T01:01:33;101808.25;;;16.43;100.00
76358;BME280;65185;21.060;105.826;2022-12-10T01:04:05;101807.72;;;16.41;100.00
76358;BME280;65185;21.060;105.826;2022-12-10T01:06:41;101815.28;;;16.44;100.00
76358;BME280;65185;21.060;105.826;2022-12-10T01:09:10;101807.44;;;16.43;100.00
76358;BME280;65185;21.060;105.826;2022-12-10T01:11:40;101812.88;;;16.43;100.00
76358;BME280;65185;21.060;105.826;2022-12-10T01:14:10;101822.34;;;16.45;100.00
76358;BME280;65185;21.060;105.826;2022-12-10T01:16:37;101825.63;;;16.47;100.00
76358;BME280;65185;21.060;105.826;2022-12-10T01:19:04;101826.69;;;16.46;100.00
76358;BME280;65185;21.060;105.826;2022-12-10T01:21:31;101828.84;;;16.44;100.00
76358;BME280;65185;21.060;105.826;2022-12-10T01:23:58;101833.47;;;16.44;100.00
76358;BME280;65185;21.060;105.826;2022-12-10T01:26:31;101831.56;;;16.44;100.00
76358;BME280;65185;21.060;105.826;2022-12-10T01:28:59;101836.47;;;16.47;100.00
76358;BME280;65185;21.060;105.826;2022-12-10T01:31:31;101836.47;;;16.47;100.00
76358;BME280;65185;21.060;105.826;2022-12-10T01:33:59;101840.81;;;16.48;100.00
76358;BME280;65185;21.060;105.826;2022-12-10T01:36:35;101848.13;;;16.53;100.00
76358;BME280;65185;21.060;105.826;2022-12-10T01:39:06;101840.81;;;16.53;100.00
76358;BME280;65185;21.060;105.826;2022-12-10T01:41:42;101842.72;;;16.53;100.00
76358;BME280;65185;21.060;105.826;2022-12-10T01:46:44;101840.25;;;16.51;100.00
76358;BME280;65185;21.060;105.826;2022-12-10T01:49:16;101845.41;;;16.53;100.00
76358;BME280;65185;21.060;105.826;2022-12-10T01:51:47;101843.25;;;16.55;100.00
76358;BME280;65185;21.060;105.826;2022-12-10T01:54:42;101837.53;;;16.51;100.00
76358;BME280;65185;21.060;105.826;2022-12-10T01:57:21;101835.38;;;16.53;100.00
76358;BME280;65185;21.060;105.826;2022-12-10T01:59:52;101848.38;;;16.51;100.00
76358;BME280;65185;21.060;105.826;2022-12-10T02:07:55;101847.56;;;16.51;100.00
76358;BME280;65185;21.060;105.826;2022-12-10T02:16:16;101846.50;;;16.57;100.00
76358;BME280;65185;21.060;105.826;2022-12-10T02:19:04;101852.75;;;16.57;100.00
76358;BME280;65185;21.060;105.826;2022-12-10T02:21:37;101858.75;;;16.59;100.00
76358;BME280;65185;21.060;105.826;2022-12-10T02:24:10;101865.50;;;16.57;100.00
76358;BME280;65185;21.060;105.826;2022-12-10T02:26:58;101861.97;;;16.56;100.00
76358;BME280;65185;21.060;105.826;2022-12-10T02:29:28;101861.97;;;16.56;100.00
76358;BME280;65185;21.060;105.826;2022-12-10T02:32:25;101859.25;;;16.56;100.00
76358;BME280;65185;21.060;105.826;2022-12-10T02:34:57;101859.00;;;16.58;100.00
76358;BME280;65185;21.060;105.826;2022-12-10T02:37:31;101859.25;;;16.56;100.00
76358;BME280;65185;21.060;105.826;2022-12-10T02:40:03;101866.06;;;16.59;100.00
76358;BME280;65185;21.060;105.826;2022-12-10T02:42:36;101864.41;;;16.58;100.00
76358;BME280;65185;21.060;105.826;2022-12-10T02:45:05;101863.38;;;16.59;100.00
76358;BME280;65185;21.060;105.826;2022-12-10T02:47:34;101863.09;;;16.60;100.00
76358;BME280;65185;21.060;105.826;2022-12-10T02:50:02;101863.09;;;16.60;100.00
76358;BME280;65185;21.060;105.826;2022-12-10T02:52:29;101867.41;;;16.61;100.00
76358;BME280;65185;21.060;105.826;2022-12-10T02:54:56;101863.13;;;16.66;100.00
76358;BME280;65185;21.060;105.826;2022-12-10T02:57:35;101863.63;;;16.62;100.00
76358;BME280;65185;21.060;105.826;2022-12-10T03:00:17;101872.59;;;16.63;100.00
76358;BME280;65185;21.060;105.826;2022-12-10T03:05:47;101868.53;;;16.60;100.00
76358;BME280;65185;21.060;105.826;2022-12-10T03:08:37;101872.31;;;16.59;100.00
76358;BME280;65185;21.060;105.826;2022-12-10T03:11:12;101871.50;;;16.59;100.00
76358;BME280;65185;21.060;105.826;2022-12-10T03:13:52;101872.03;;;16.61;100.00
76358;BME280;65185;21.060;105.826;2022-12-10T03:16:23;101867.41;;;16.61;100.00
76358;BME280;65185;21.060;105.826;2022-12-10T03:18:51;101865.81;;;16.60;100.00
76358;BME280;65185;21.060;105.826;2022-12-10T03:21:20;101869.06;;;16.62;100.00
76358;BME280;65185;21.060;105.826;2022-12-10T03:23:48;101864.19;;;16.65;100.00
76358;BME280;65185;21.060;105.826;2022-12-10T03:26:17;101876.66;;;16.66;100.00
76358;BME280;65185;21.060;105.826;2022-12-10T03:28:55;101872.31;;;16.59;100.00
76358;BME280;65185;21.060;105.826;2022-12-10T03:31:23;101863.63;;;16.62;100.00
76358;BME280;65185;21.060;105.826;2022-12-10T03:33:50;101862.56;;;16.63;100.00
76358;BME280;65185;21.060;105.826;2022-12-10T03:36:19;101856.31;;;16.68;100.00
76358;BME280;65185;21.060;105.826;2022-12-10T03:38:46;101856.59;;;16.67;100.00
76358;BME280;65185;21.060;105.826;2022-12-10T03:41:13;101854.97;;;16.60;100.00
76358;BME280;65185;21.060;105.826;2022-12-10T03:43:53;101843.81;;;16.62;100.00
76358;BME280;65185;21.060;105.826;2022-12-10T03:46:22;101843.56;;;16.63;100.00
76358;BME280;65185;21.060;105.826;2022-12-10T03:48:50;101834.34;;;16.65;100.00
76358;BME280;65185;21.060;105.826;2022-12-10T03:51:17;101830.00;;;16.63;100.00
76358;BME280;65185;21.060;105.826;2022-12-10T03:53:43;101828.66;;;16.66;100.00
76358;BME280;65185;21.060;105.826;2022-12-10T03:56:10;101827.84;;;16.66;100.00
76358;BME280;65185;21.060;105.826;2022-12-10T03:58:37;101827.56;;;16.67;100.00
76358;BME280;65185;21.060;105.826;2022-12-10T04:01:04;101827.84;;;16.66;100.00
76358;BME280;65185;21.060;105.826;2022-12-10T04:03:37;101822.69;;;16.64;100.00
76358;BME280;65185;21.060;105.826;2022-12-10T04:06:07;101822.13;;;16.62;100.00
76358;BME280;65185;21.060;105.826;2022-12-10T04:08:33;101821.06;;;16.63;100.00
76358;BME280;65185;21.060;105.826;2022-12-10T04:11:04;101818.34;;;16.63;100.00
76358;BME280;65185;21.060;105.826;2022-12-10T04:13:36;101812.09;;;16.62;100.00
76358;BME280;65185;21.060;105.826;2022-12-10T04:16:22;101809.94;;;16.65;100.00
76358;BME280;65185;21.060;105.826;2022-12-10T04:19:01;101806.41;;;16.64;100.00
76358;BME280;65185;21.060;105.826;2022-12-10T04:21:30;101799.09;;;16.65;100.00
76358;BME280;65185;21.060;105.826;2022-12-10T04:24:17;101794.75;;;16.63;100.00
76358;BME280;65185;21.060;105.826;2022-12-10T04:27:08;101795.81;;;16.62;100.00
76358;BME280;65185;21.060;105.826;2022-12-10T04:29:36;101790.66;;;16.61;100.00
76358;BME280;65185;21.060;105.826;2022-12-10T04:32:03;101782.81;;;16.59;100.00
76358;BME280;65185;21.060;105.826;2022-12-10T04:34:30;101781.75;;;16.60;100.00
76358;BME280;65185;21.060;105.826;2022-12-10T04:36:58;101773.06;;;16.63;100.00
76358;BME280;65185;21.060;105.826;2022-12-10T04:39:25;101775.22;;;16.61;100.00
76358;BME280;65185;21.060;105.826;2022-12-10T04:41:53;101769.25;;;16.59;100.00
76358;BME280;65185;21.060;105.826;2022-12-10T04:44:20;101758.91;;;16.56;100.00
76358;BME280;65185;21.060;105.826;2022-12-10T04:46:47;101757.00;;;16.57;100.00
76358;BME280;65185;21.060;105.826;2022-12-10T04:49:14;101747.56;;;16.59;100.00
76358;BME280;65185;21.060;105.826;2022-12-10T04:51:41;101738.84;;;16.57;100.00
76358;BME280;65185;21.060;105.826;2022-12-10T04:54:08;101740.47;;;16.58;100.00
76358;BME280;65185;21.060;105.826;2022-12-10T04:56:36;101738.03;;;16.57;100.00
76358;BME280;65185;21.060;105.826;2022-12-10T04:59:04;101732.59;;;16.52;100.00
76358;BME280;65185;21.060;105.826;2022-12-10T05:01:31;101734.53;;;16.61;100.00
76358;BME280;65185;21.060;105.826;2022-12-10T05:04:00;101724.78;;;16.60;100.00
76358;BME280;65185;21.060;105.826;2022-12-10T05:06:27;101709.59;;;16.59;100.00
76358;BME280;65185;21.060;105.826;2022-12-10T05:08:55;101712.81;;;16.56;100.00
76358;BME280;65185;21.060;105.826;2022-12-10T05:11:24;101704.66;;;16.56;100.00
76358;BME280;65185;21.060;105.826;2022-12-10T05:13:52;101707.69;;;16.55;100.00
76358;BME280;65185;21.060;105.826;2022-12-10T05:16:21;101706.31;;;16.52;100.00
76358;BME280;65185;21.060;105.826;2022-12-10T05:18:49;101697.91;;;16.54;100.00
76358;BME280;65185;21.060;105.826;2022-12-10T05:21:18;101688.41;;;16.56;100.00
76358;BME280;65185;21.060;105.826;2022-12-10T05:23:51;101684.34;;;16.54;100.00
76358;BME280;65185;21.060;105.826;2022-12-10T05:26:23;101683.53;;;16.53;100.00
76358;BME280;65185;21.060;105.826;2022-12-10T05:28:53;101674.59;;;16.53;100.00
76358;BME280;65185;21.060;105.826;2022-12-10T05:31:25;101668.09;;;16.54;100.00
76358;BME280;65185;21.060;105.826;2022-12-10T05:33:54;101666.72;;;16.56;100.00
76358;BME280;65185;21.060;105.826;2022-12-10T05:36:27;101650.16;;;16.58;100.00
76358;BME280;65185;21.060;105.826;2022-12-10T05:38:55;101649.63;;;16.56;100.00
76358;BME280;65185;21.060;105.826;2022-12-10T05:41:24;101645.00;;;16.56;100.00
76358;BME280;65185;21.060;105.826;2022-12-10T05:43:54;101632.84;;;16.59;100.00
76358;BME280;65185;21.060;105.826;2022-12-10T05:46:23;101636.91;;;16.61;100.00
76358;BME280;65185;21.060;105.826;2022-12-10T05:48:50;101627.69;;;16.62;100.00
76358;BME280;65185;21.060;105.826;2022-12-10T05:51:23;101631.19;;;16.68;100.00
76358;BME280;65185;21.060;105.826;2022-12-10T05:53:51;101628.75;;;16.67;100.00
76358;BME280;65185;21.060;105.826;2022-12-10T05:56:21;101610.31;;;16.69;100.00
76358;BME280;65185;21.060;105.826;2022-12-10T05:58:48;101627.66;;;16.68;100.00
76358;BME280;65185;21.060;105.826;2022-12-10T06:01:18;101617.91;;;16.67;100.00
76358;BME280;65185;21.060;105.826;2022-12-10T06:03:46;101613.59;;;16.66;100.00
76358;BME280;65185;21.060;105.826;2022-12-10T06:06:13;101602.75;;;16.66;100.00
76358;BME280;65185;21.060;105.826;2022-12-10T06:08:40;101604.34;;;16.67;100.00
76358;BME280;65185;21.060;105.826;2022-12-10T06:11:10;101600.03;;;16.66;100.00
76358;BME280;65185;21.060;105.826;2022-12-10T06:13:37;101595.41;;;16.66;100.00
76358;BME280;65185;21.060;105.826;2022-12-10T06:16:10;101591.59;;;16.67;100.00
76358;BME280;65185;21.060;105.826;2022-12-10T06:18:37;101582.94;;;16.65;100.00
76358;BME280;65185;21.060;105.826;2022-12-10T06:21:09;101582.66;;;16.67;100.00
76358;BME280;65185;21.060;105.826;2022-12-10T06:23:37;101575.31;;;16.67;100.00
76358;BME280;65185;21.060;105.826;2022-12-10T06:26:16;101571.53;;;16.68;100.00
76358;BME280;65185;21.060;105.826;2022-12-10T06:28:47;101565.84;;;16.70;100.00
76358;BME280;65185;21.060;105.826;2022-12-10T06:31:15;101565.03;;;16.69;100.00
76358;BME280;65185;21.060;105.826;2022-12-10T06:33:42;101569.91;;;16.67;100.00
76358;BME280;65185;21.060;105.826;2022-12-10T06:36:12;101565.28;;;16.68;100.00
76358;BME280;65185;21.060;105.826;2022-12-10T06:38:39;101561.75;;;16.67;100.00
76358;BME280;65185;21.060;105.826;2022-12-10T06:41:11;101557.97;;;16.68;100.00
76358;BME280;65185;21.060;105.826;2022-12-10T06:43:38;101554.41;;;16.73;100.00
76358;BME280;65185;21.060;105.826;2022-12-10T06:46:11;101558.50;;;16.75;100.00
76358;BME280;65185;21.060;105.826;2022-12-10T06:48:39;101559.56;;;16.74;100.00
76358;BME280;65185;21.060;105.826;2022-12-10T06:51:06;101550.09;;;16.77;100.00
76358;BME280;65185;21.060;105.826;2022-12-10T06:53:35;101552.50;;;16.78;100.00
76358;BME280;65185;21.060;105.826;2022-12-10T06:56:04;101553.63;;;16.77;100.00
76358;BME280;65185;21.060;105.826;2022-12-10T06:58:32;101549.25;;;16.81;100.00
76358;BME280;65185;21.060;105.826;2022-12-10T07:01:08;101543.00;;;16.81;100.00
76358;BME280;65185;21.060;105.826;2022-12-10T07:03:35;101541.13;;;16.81;100.00
76358;BME280;65185;21.060;105.826;2022-12-10T07:06:03;101543.00;;;16.81;100.00
76358;BME280;65185;21.060;105.826;2022-12-10T07:08:30;101539.22;;;16.82;100.00
76358;BME280;65185;21.060;105.826;2022-12-10T07:10:57;101538.41;;;16.81;100.00
76358;BME280;65185;21.060;105.826;2022-12-10T07:13:25;101545.16;;;16.84;100.00
76358;BME280;65185;21.060;105.826;2022-12-10T07:15:51;101529.19;;;16.82;100.00
76358;BME280;65185;21.060;105.826;2022-12-10T07:18:18;101530.53;;;16.80;100.00
76358;BME280;65185;21.060;105.826;2022-12-10T07:20:45;101527.00;;;16.79;100.00
76358;BME280;65185;21.060;105.826;2022-12-10T07:23:12;101527.28;;;16.83;100.00
76358;BME280;65185;21.060;105.826;2022-12-10T07:25:39;101526.97;;;16.84;100.00
76358;BME280;65185;21.060;105.826;2022-12-10T07:28:05;101527.78;;;16.85;100.00
76358;BME280;65185;21.060;105.826;2022-12-10T07:30:32;101526.44;;;16.87;100.00
76358;BME280;65185;21.060;105.826;2022-12-10T07:32:59;101528.84;;;16.89;100.00
76358;BME280;65185;21.060;105.826;2022-12-10T07:35:26;101523.44;;;16.89;100.00
76358;BME280;65185;21.060;105.826;2022-12-10T07:37:53;101527.25;;;16.88;100.00
76358;BME280;65185;21.060;105.826;2022-12-10T07:40:19;101525.63;;;16.87;100.00
76358;BME280;65185;21.060;105.826;2022-12-10T07:42:46;101525.63;;;16.87;100.00
76358;BME280;65185;21.060;105.826;2022-12-10T07:45:13;101529.44;;;16.86;100.00
76358;BME280;65185;21.060;105.826;2022-12-10T07:47:40;101524.56;;;16.83;100.00
76358;BME280;65185;21.060;105.826;2022-12-10T07:50:07;101528.38;;;16.82;100.00
76358;BME280;65185;21.060;105.826;2022-12-10T07:52:34;101525.66;;;16.82;100.00
76358;BME280;65185;21.060;105.826;2022-12-10T07:55:01;101521.84;;;16.83;100.00
76358;BME280;65185;21.060;105.826;2022-12-10T07:57:29;101512.59;;;16.84;100.00
76358;BME280;65185;21.060;105.826;2022-12-10T07:59:56;101508.53;;;16.86;100.00
76358;BME280;65185;21.060;105.826;2022-12-10T08:02:24;101503.34;;;16.90;100.00
76358;BME280;65185;21.060;105.826;2022-12-10T08:04:51;101495.75;;;16.92;100.00
76358;BME280;65185;21.060;105.826;2022-12-10T08:07:18;101497.38;;;16.93;100.00
76358;BME280;65185;21.060;105.826;2022-12-10T08:09:45;101494.09;;;16.96;100.00
76358;BME280;65185;21.060;105.826;2022-12-10T08:12:11;101496.28;;;16.99;100.00
76358;BME280;65185;21.060;105.826;2022-12-10T08:14:38;101492.97;;;17.02;100.00
76358;BME280;65185;21.060;105.826;2022-12-10T08:17:05;101492.72;;;17.03;100.00
76358;BME280;65185;21.060;105.826;2022-12-10T08:19:32;101490.00;;;17.03;100.00
76358;BME280;65185;21.060;105.826;2022-12-10T08:21:59;101492.16;;;17.01;100.00
76358;BME280;65185;21.060;105.826;2022-12-10T08:24:26;101495.97;;;17.00;100.00
76358;BME280;65185;21.060;105.826;2022-12-10T08:26:52;101499.50;;;17.01;100.00
76358;BME280;65185;21.060;105.826;2022-12-10T08:29:19;101500.59;;;17.00;100.00
76358;BME280;65185;21.060;105.826;2022-12-10T08:31:46;101500.59;;;17.00;100.00
76358;BME280;65185;21.060;105.826;2022-12-10T08:34:16;101509.28;;;16.97;100.00
76358;BME280;65185;21.060;105.826;2022-12-10T08:36:42;101507.66;;;16.96;100.00
76358;BME280;65185;21.060;105.826;2022-12-10T08:39:10;101511.75;;;16.98;100.00
76358;BME280;65185;21.060;105.826;2022-12-10T08:41:42;101510.38;;;16.96;100.00
76358;BME280;65185;21.060;105.826;2022-12-10T08:44:09;101512.59;;;16.94;100.00
76358;BME280;65185;21.060;105.826;2022-12-10T08:46:36;101515.28;;;16.94;100.00
76358;BME280;65185;21.060;105.826;2022-12-10T08:49:04;101512.59;;;16.94;100.00
76358;BME280;65185;21.060;105.826;2022-12-10T08:51:33;101512.28;;;16.95;100.00
76358;BME280;65185;21.060;105.826;2022-12-10T08:54:00;101515.28;;;16.94;100.00
76358;BME280;65185;21.060;105.826;2022-12-10T08:56:26;101517.69;;;16.95;100.00
76358;BME280;65185;21.060;105.826;2022-12-10T08:58:54;101519.59;;;16.95;100.00
76358;BME280;65185;21.060;105.826;2022-12-10T09:01:21;101523.13;;;16.95;100.00
76358;BME280;65185;21.060;105.826;2022-12-10T09:03:48;101521.78;;;16.98;100.00
76358;BME280;65185;21.060;105.826;2022-12-10T09:06:18;101519.06;;;16.98;100.00
76358;BME280;65185;21.060;105.826;2022-12-10T09:08:46;101525.31;;;16.98;100.00
76358;BME280;65185;21.060;105.826;2022-12-10T09:11:18;101522.28;;;17.00;100.00
76358;BME280;65185;21.060;105.826;2022-12-10T09:13:46;101527.44;;;17.01;100.00
76358;BME280;65185;21.060;105.826;2022-12-10T09:16:13;101527.44;;;17.01;100.00
76358;BME280;65185;21.060;105.826;2022-12-10T09:18:41;101516.59;;;17.01;100.00
76358;BME280;65185;21.060;105.826;2022-12-10T09:21:10;101525.28;;;17.03;100.00
76358;BME280;65185;21.060;105.826;2022-12-10T09:23:39;101521.47;;;17.04;100.00
76358;BME280;65185;21.060;105.826;2022-12-10T09:26:12;101529.06;;;17.02;100.00
76358;BME280;65185;21.060;105.826;2022-12-10T09:28:40;101529.34;;;17.01;100.00
76358;BME280;65185;21.060;105.826;2022-12-10T09:31:07;101534.78;;;17.01;100.00
76358;BME280;65185;21.060;105.826;2022-12-10T09:33:35;101540.19;;;17.01;100.00
76358;BME280;65185;21.060;105.826;2022-12-10T09:36:04;101536.41;;;17.02;100.00
76358;BME280;65185;21.060;105.826;2022-12-10T09:38:37;101539.13;;;17.02;100.00
76358;BME280;65185;21.060;105.826;2022-12-10T09:44:03;101545.09;;;17.04;100.00
76358;BME280;65185;21.060;105.826;2022-12-10T09:46:45;101545.34;;;17.02;100.00
76358;BME280;65185;21.060;105.826;2022-12-10T09:52:01;101557.28;;;17.01;100.00
76358;BME280;65185;21.060;105.826;2022-12-10T09:54:42;101563.00;;;17.00;100.00
76358;BME280;65185;21.060;105.826;2022-12-10T09:57:35;101568.72;;;16.98;100.00
76358;BME280;65185;21.060;105.826;2022-12-10T10:00:36;101568.72;;;16.98;100.00
76358;BME280;65185;21.060;105.826;2022-12-10T10:03:05;101575.22;;;16.97;100.00
76358;BME280;65185;21.060;105.826;2022-12-10T10:05:41;101575.22;;;16.97;100.00
76358;BME280;65185;21.060;105.826;2022-12-10T10:10:49;101579.03;;;16.96;100.00
76358;BME280;65185;21.060;105.826;2022-12-10T10:13:26;101574.41;;;16.97;100.00
76358;BME280;65185;21.060;105.826;2022-12-10T10:15:55;101579.03;;;16.96;100.00
76358;BME280;65185;21.060;105.826;2022-12-10T10:19:05;101585.28;;;16.97;100.00
76358;BME280;65185;21.060;105.826;2022-12-10T10:21:27;101593.97;;;16.99;100.00
76358;BME280;65185;21.060;105.826;2022-12-10T10:23:56;101593.13;;;16.98;100.00
76358;BME280;65185;21.060;105.826;2022-12-10T10:26:26;101596.13;;;16.97;100.00
76358;BME280;65185;21.060;105.826;2022-12-10T10:29:00;101593.69;;;16.95;100.00
76358;BME280;65185;21.060;105.826;2022-12-10T10:31:30;101599.41;;;16.94;100.00
76358;BME280;65185;21.060;105.826;2022-12-10T10:34:03;101604.84;;;16.94;100.00
76358;BME280;65185;21.060;105.826;2022-12-10T10:36:33;101608.63;;;16.93;100.00
76358;BME280;65185;21.060;105.826;2022-12-10T10:39:10;101601.31;;;16.93;100.00
76358;BME280;65185;21.060;105.826;2022-12-10T10:41:39;101605.91;;;16.93;100.00
76358;BME280;65185;21.060;105.826;2022-12-10T10:44:17;101608.31;;;16.94;100.00
76358;BME280;65185;21.060;105.826;2022-12-10T10:46:47;101608.88;;;16.96;100.00
76358;BME280;65185;21.060;105.826;2022-12-10T10:49:24;101610.78;;;16.96;100.00
76358;BME280;65185;21.060;105.826;2022-12-10T10:51:53;101619.72;;;16.96;100.00
76358;BME280;65185;21.060;105.826;2022-12-10T10:54:40;101617.84;;;16.97;100.00
76358;BME280;65185;21.060;105.826;2022-12-10T11:00:18;101616.75;;;16.98;100.00
76358;BME280;65185;21.060;105.826;2022-12-10T11:02:46;101620.53;;;16.97;100.00
76358;BME280;65185;21.060;105.826;2022-12-10T11:05:26;101624.88;;;16.98;100.00
76358;BME280;65185;21.060;105.826;2022-12-10T11:08:02;101614.84;;;16.98;100.00
76358;BME280;65185;21.060;105.826;2022-12-10T11:10:30;101623.81;;;16.99;100.00
76358;BME280;65185;21.060;105.826;2022-12-10T11:13:14;101624.63;;;16.99;100.00
76358;BME280;65185;21.060;105.826;2022-12-10T11:15:44;101626.53;;;16.94;100.00
76358;BME280;65185;21.060;105.826;2022-12-10T11:18:24;101627.63;;;16.93;100.00
76358;BME280;65185;21.060;105.826;2022-12-10T11:21:15;101633.88;;;16.93;100.00
76358;BME280;65185;21.060;105.826;2022-12-10T11:23:45;101636.00;;;16.96;100.00
76358;BME280;65185;21.060;105.826;2022-12-10T11:31:58;101647.13;;;17.00;100.00
76358;BME280;65185;21.060;105.826;2022-12-10T11:34:44;101647.41;;;16.98;100.00
76358;BME280;65185;21.060;105.826;2022-12-10T11:46:07;101665.59;;;16.98;100.00
76358;BME280;65185;21.060;105.826;2022-12-10T11:52:01;101682.38;;;17.00;100.00
76358;BME280;65185;21.060;105.826;2022-12-10T12:13:25;101695.97;;;17.05;100.00
76358;BME280;65185;21.060;105.826;2022-12-10T12:16:04;101701.66;;;17.03;100.00
76358;BME280;65185;21.060;105.826;2022-12-10T12:18:53;101707.63;;;17.00;100.00
76358;BME280;65185;21.060;105.826;2022-12-10T12:21:22;101701.94;;;17.02;100.00
76358;BME280;65185;21.060;105.826;2022-12-10T12:24:33;101703.59;;;16.98;100.00
76358;BME280;65185;21.060;105.826;2022-12-10T12:30:15;101706.03;;;16.99;100.00
76358;BME280;65185;21.060;105.826;2022-12-10T12:40:51;101724.22;;;16.99;100.00
76358;BME280;65185;21.060;105.826;2022-12-10T12:46:02;101730.69;;;17.08;100.00
76358;BME280;65185;21.060;105.826;2022-12-10T12:51:22;101733.69;;;17.07;100.00
76358;BME280;65185;21.060;105.826;2022-12-10T12:53:51;101732.03;;;17.05;100.00
76358;BME280;65185;21.060;105.826;2022-12-10T12:56:53;101732.59;;;17.08;100.00
76358;BME280;65185;21.060;105.826;2022-12-10T13:01:51;101731.53;;;17.03;100.00
76358;BME280;65185;21.060;105.826;2022-12-10T13:04:20;101736.41;;;17.01;100.00
76358;BME280;65185;21.060;105.826;2022-12-10T13:07:09;101743.72;;;17.01;100.00
76358;BME280;65185;21.060;105.826;2022-12-10T13:12:48;101746.72;;;16.99;100.00
76358;BME280;65185;21.060;105.826;2022-12-10T13:15:33;101737.47;;;17.00;100.00
76358;BME280;65185;21.060;105.826;2022-12-10T13:18:03;101752.94;;;17.00;100.00
76358;BME280;65185;21.060;105.826;2022-12-10T13:20:31;101754.06;;;16.99;100.00
76358;BME280;65185;21.060;105.826;2022-12-10T13:23:04;101753.50;;;16.97;100.00
76358;BME280;65185;21.060;105.826;2022-12-10T13:25:41;101761.91;;;16.95;100.00
76358;BME280;65185;21.060;105.826;2022-12-10T13:28:27;101758.94;;;16.97;100.00
76358;BME280;65185;21.060;105.826;2022-12-10T13:45:00;101764.34;;;17.02;100.00
76358;BME280;65185;21.060;105.826;2022-12-10T13:50:14;101764.34;;;17.02;100.00
76358;BME280;65185;21.060;105.826;2022-12-10T13:52:56;101771.16;;;17.04;100.00
76358;BME280;65185;21.060;105.826;2022-12-10T13:55:55;101783.34;;;17.02;100.00
76358;BME280;65185;21.060;105.826;2022-12-10T14:01:00;101779.56;;;17.03;100.00
76358;BME280;65185;21.060;105.826;2022-12-10T14:03:55;101769.50;;;17.03;100.00
76358;BME280;65185;21.060;105.826;2022-12-10T14:06:33;101780.09;;;17.05;100.00
76358;BME280;65185;21.060;105.826;2022-12-10T14:12:04;101790.97;;;17.05;100.00
76358;BME280;65185;21.060;105.826;2022-12-10T14:14:41;101786.88;;;17.02;100.00
76358;BME280;65185;21.060;105.826;2022-12-10T14:17:19;101794.22;;;17.02;100.00
76358;BME280;65185;21.060;105.826;2022-12-10T14:19:49;101795.28;;;17.01;100.00
76358;BME280;65185;21.060;105.826;2022-12-10T14:25:15;101802.59;;;17.05;100.00
76358;BME280;65185;21.060;105.826;2022-12-10T14:27:46;101794.47;;;17.05;100.00
76358;BME280;65185;21.060;105.826;2022-12-10T14:30:24;101796.66;;;17.03;100.00
76358;BME280;65185;21.060;105.826;2022-12-10T14:32:58;101805.63;;;16.99;100.00
76358;BME280;65185;21.060;105.826;2022-12-10T14:35:28;101804.81;;;16.98;100.00